KDUX

Moore County Airport

Dumas, Texas, USA
METAR KDUX 180655Z AUTO 19010KT 10SM CLR 02/M07 A3006 RMK AO2 T00201070
Observed Flight Rules
Feb-18 @ 06:55 UTC (21 minutes ago) Visual Flight Rules
Wind Visibility Clouds
190° at 10 knots 10 miles
  • Clear skies
Temperatures Readings
Current 2°C / 36°F
Dewpoint -7°C / 19°F
Humidity 52%
Altimeter 30.06" Hg
Pressure 1018 hPa
Elevation 1129
METAR KDUX 180655Z AUTO 19010KT 10SM CLR 02/M07 A3006 RMK AO2 T00201070
Observed Flight Rules
Feb-18 @ 06:55 UTC
(21 minutes ago)
VFR
Wind Visibility
190° at 10 knots 10 miles
Clouds
  • Clear skies
Temperature Dewpoint
2°C / 36°F -7°C / 19°F
Humidity Altimeter Pressure
52% 30.06" Hg 1018 hPa